Time;durP1;ratioP1;P1;durP2;ratioP2;P2;SDS_P1;SDS_P2;PMS_P1;PMS_P2;Temp;Humidity;BMP_temperature;BMP_pressure;BME280_temperature;BME280_humidity;BME280_pressure;Samples;Min_cycle;Max_cycle;Signal;HPM_P1;HPM_P2
2023/09/27 00:01:14;;;;;;;24.03;19.23;;;19.70;88.60;;;;;;5061673;28;20640;-64
2023/09/27 00:03:42;;;;;;;31.00;21.37;;;19.60;88.90;;;;;;5057069;28;20295;-64
2023/09/27 00:06:09;;;;;;;25.47;19.20;;;19.50;89.10;;;;;;5057856;28;20201;-65
2023/09/27 00:08:36;;;;;;;26.63;20.40;;;19.50;89.30;;;;;;5058868;28;20277;-64
2023/09/27 00:11:03;;;;;;;30.87;21.33;;;19.50;89.40;;;;;;5060270;28;20213;-65
2023/09/27 00:13:31;;;;;;;26.13;22.57;;;19.40;89.50;;;;;;5057190;28;20206;-64
2023/09/27 00:15:58;;;;;;;25.93;20.23;;;19.40;89.60;;;;;;5055284;28;20214;-64
2023/09/27 00:18:25;;;;;;;26.47;20.20;;;19.40;89.70;;;;;;5055367;28;20205;-64
2023/09/27 00:20:52;;;;;;;29.00;20.07;;;19.40;89.70;;;;;;5054690;28;20214;-65
2023/09/27 00:23:19;;;;;;;31.10;20.33;;;19.30;89.70;;;;;;5058297;28;20202;-64
2023/09/27 00:25:46;;;;;;;23.77;20.03;;;19.30;89.80;;;;;;5056355;28;20204;-65
2023/09/27 00:28:13;;;;;;;28.97;21.60;;;19.20;89.90;;;;;;5054869;28;20213;-64
2023/09/27 00:30:41;;;;;;;30.53;21.20;;;19.30;90.00;;;;;;5059401;28;20207;-64
2023/09/27 00:33:08;;;;;;;25.43;19.27;;;19.20;90.30;;;;;;5056084;28;20208;-65
2023/09/27 00:35:35;;;;;;;32.43;19.37;;;19.20;90.10;;;;;;5056879;28;20624;-64
2023/09/27 00:38:02;;;;;;;25.27;20.00;;;19.20;90.20;;;;;;5063985;28;20521;-64
2023/09/27 00:40:31;;;;;;;27.50;21.10;;;19.10;90.10;;;;;;5061953;28;20524;-65
2023/09/27 00:42:58;;;;;;;31.47;20.57;;;19.10;90.10;;;;;;5054258;28;20606;-64
2023/09/27 00:45:25;;;;;;;28.30;20.53;;;19.10;90.20;;;;;;5053588;28;20213;-65
2023/09/27 00:47:55;;;;;;;28.00;21.23;;;19.00;90.20;;;;;;5052934;28;20213;-64
2023/09/27 00:50:23;;;;;;;31.43;22.23;;;19.00;90.30;;;;;;5051011;28;20205;-65
2023/09/27 00:52:51;;;;;;;29.40;19.53;;;19.00;90.30;;;;;;5052783;28;20241;-65
2023/09/27 00:55:20;;;;;;;26.40;21.63;;;18.90;90.30;;;;;;5057010;28;20202;-64
2023/09/27 00:57:49;;;;;;;31.20;22.73;;;18.90;90.40;;;;;;5058607;28;20628;-65
2023/09/27 01:00:17;;;;;;;31.07;21.30;;;18.90;90.30;;;;;;5052564;28;20247;-64
2023/09/27 01:02:45;;;;;;;27.70;19.70;;;18.90;90.30;;;;;;5053867;28;20189;-65
2023/09/27 01:05:12;;;;;;;25.73;20.17;;;18.80;90.40;;;;;;5047502;28;20283;-64
2023/09/27 01:07:40;;;;;;;27.93;21.83;;;18.70;90.40;;;;;;5050245;28;20213;-65
2023/09/27 01:10:08;;;;;;;26.90;20.50;;;18.80;90.50;;;;;;5056016;28;20209;-65
2023/09/27 01:12:37;;;;;;;27.17;20.33;;;18.70;90.60;;;;;;5058894;28;20205;-65
2023/09/27 01:15:06;;;;;;;27.43;21.17;;;18.70;90.60;;;;;;5051030;28;20554;-65
2023/09/27 01:17:34;;;;;;;29.63;21.90;;;18.70;90.70;;;;;;5057510;28;20226;-65
2023/09/27 01:20:03;;;;;;;28.20;21.40;;;18.70;90.80;;;;;;5058123;28;20509;-65
2023/09/27 01:22:30;;;;;;;33.53;22.67;;;18.70;90.80;;;;;;5055740;28;20297;-65
2023/09/27 01:24:58;;;;;;;30.10;21.23;;;18.70;90.90;;;;;;5054182;28;20226;-65
2023/09/27 01:27:25;;;;;;;28.03;21.10;;;18.70;90.80;;;;;;5056172;28;20221;-64
2023/09/27 01:29:52;;;;;;;30.73;22.60;;;18.70;90.80;;;;;;5062291;28;20253;-64
2023/09/27 01:32:19;;;;;;;31.93;21.13;;;18.70;90.80;;;;;;5057613;28;20231;-65
2023/09/27 01:34:46;;;;;;;32.53;22.03;;;18.60;90.80;;;;;;5054223;28;20278;-65
2023/09/27 01:37:14;;;;;;;33.17;22.03;;;18.60;90.90;;;;;;5055626;28;20221;-64
2023/09/27 01:39:41;;;;;;;26.07;21.47;;;18.60;90.80;;;;;;5059888;28;20263;-65
2023/09/27 01:42:10;;;;;;;26.80;19.90;;;18.60;90.90;;;;;;5062237;28;20555;-65
2023/09/27 01:44:38;;;;;;;27.97;20.53;;;18.60;90.90;;;;;;5063783;28;20206;-64
2023/09/27 01:47:05;;;;;;;31.93;20.97;;;18.60;91.00;;;;;;5064462;28;20213;-65
2023/09/27 01:49:32;;;;;;;27.63;20.83;;;18.60;91.00;;;;;;5044290;28;20582;-64
2023/09/27 01:51:59;;;;;;;25.10;19.57;;;18.60;91.00;;;;;;5053187;28;20536;-65
2023/09/27 01:54:26;;;;;;;26.77;18.73;;;18.60;91.00;;;;;;5057183;28;21169;-65
2023/09/27 01:56:53;;;;;;;26.47;20.20;;;18.60;91.00;;;;;;5054131;28;20569;-64
2023/09/27 01:59:20;;;;;;;28.17;19.13;;;18.60;91.00;;;;;;5042844;28;20230;-65
2023/09/27 02:01:47;;;;;;;31.03;21.33;;;18.60;91.00;;;;;;5058561;28;20197;-65
2023/09/27 02:04:14;;;;;;;29.83;20.87;;;18.60;90.90;;;;;;5052031;28;20215;-65
2023/09/27 02:06:41;;;;;;;33.67;21.27;;;18.60;90.90;;;;;;5046430;28;20281;-65
2023/09/27 02:09:08;;;;;;;26.53;20.40;;;18.60;90.90;;;;;;5057053;28;20287;-65
2023/09/27 02:11:36;;;;;;;26.17;20.20;;;18.60;91.00;;;;;;5049600;28;20209;-64
2023/09/27 02:14:04;;;;;;;26.77;20.97;;;18.60;91.00;;;;;;5057377;28;20717;-64
2023/09/27 02:16:33;;;;;;;32.63;21.37;;;18.60;91.10;;;;;;5036859;28;20573;-65
2023/09/27 02:19:04;;;;;;;27.90;19.53;;;18.60;91.10;;;;;;5065258;28;20210;-64
2023/09/27 02:21:31;;;;;;;26.60;20.33;;;18.50;91.10;;;;;;5057073;28;20200;-65
2023/09/27 02:23:58;;;;;;;32.47;20.97;;;18.50;91.00;;;;;;5062308;28;20266;-64
2023/09/27 02:26:25;;;;;;;26.00;20.20;;;18.50;91.10;;;;;;5056086;28;20213;-64
2023/09/27 02:28:52;;;;;;;28.70;21.60;;;18.50;91.10;;;;;;5056069;28;20692;-65
2023/09/27 02:31:19;;;;;;;29.70;20.77;;;18.40;91.10;;;;;;5057894;28;20208;-64
2023/09/27 02:33:47;;;;;;;24.70;19.53;;;18.40;91.10;;;;;;5058380;28;20204;-64
2023/09/27 02:36:14;;;;;;;25.17;19.73;;;18.40;91.20;;;;;;5061065;28;20237;-64
2023/09/27 02:38:41;;;;;;;29.33;20.63;;;18.40;91.30;;;;;;5053163;28;20590;-64
2023/09/27 02:41:09;;;;;;;28.73;21.43;;;18.40;91.40;;;;;;5060836;28;20523;-64
2023/09/27 02:43:36;;;;;;;29.17;21.23;;;18.40;91.70;;;;;;5060513;28;20209;-65
2023/09/27 02:46:03;;;;;;;25.67;20.97;;;18.30;91.30;;;;;;5063041;28;20201;-64
2023/09/27 02:48:30;;;;;;;32.83;21.77;;;18.30;91.40;;;;;;5058731;28;20198;-65
2023/09/27 02:50:58;;;;;;;29.20;20.60;;;18.30;91.50;;;;;;5040587;28;20210;-65
2023/09/27 02:53:25;;;;;;;26.93;20.93;;;18.30;91.50;;;;;;5063391;28;20208;-65
2023/09/27 02:55:52;;;;;;;29.93;20.20;;;18.30;91.60;;;;;;5074228;28;20212;-65
2023/09/27 02:58:21;;;;;;;27.77;21.43;;;18.30;91.60;;;;;;5057507;28;20204;-65
2023/09/27 03:00:48;;;;;;;27.33;21.43;;;18.30;91.50;;;;;;5057991;28;20246;-64
2023/09/27 03:03:15;;;;;;;26.03;19.83;;;18.20;91.50;;;;;;5059249;28;20204;-64
2023/09/27 03:05:42;;;;;;;25.63;19.97;;;18.20;91.50;;;;;;5058184;28;20234;-65
2023/09/27 03:08:10;;;;;;;27.20;20.37;;;18.20;91.60;;;;;;5056517;28;20209;-65
2023/09/27 03:10:38;;;;;;;26.80;19.37;;;18.20;91.70;;;;;;5052834;28;20244;-64
2023/09/27 03:13:07;;;;;;;25.07;20.43;;;18.20;91.70;;;;;;5053702;28;20658;-64
2023/09/27 03:15:38;;;;;;;30.10;20.27;;;18.20;91.70;;;;;;5052998;28;20218;-65
2023/09/27 03:18:05;;;;;;;26.13;19.70;;;18.10;91.70;;;;;;5058737;28;20212;-65
2023/09/27 03:20:33;;;;;;;27.30;20.90;;;18.10;91.70;;;;;;5049172;28;20216;-65
2023/09/27 03:23:00;;;;;;;28.73;19.63;;;18.10;91.70;;;;;;5057198;28;20269;-64
2023/09/27 03:25:28;;;;;;;26.90;19.90;;;18.10;91.70;;;;;;5054801;28;20200;-64
2023/09/27 03:27:55;;;;;;;30.03;21.33;;;18.00;91.70;;;;;;5061049;28;20282;-65
2023/09/27 03:30:22;;;;;;;25.80;20.10;;;18.00;91.80;;;;;;5069274;28;20235;-65
2023/09/27 03:32:49;;;;;;;25.77;19.70;;;18.00;91.80;;;;;;5052122;28;20304;-65
2023/09/27 03:35:18;;;;;;;30.10;21.87;;;18.00;91.80;;;;;;5055861;28;20201;-65
2023/09/27 03:37:46;;;;;;;26.17;20.47;;;18.00;91.80;;;;;;5054027;28;20229;-64
2023/09/27 03:40:14;;;;;;;25.60;19.80;;;18.00;91.80;;;;;;5054224;28;20515;-65
2023/09/27 03:42:43;;;;;;;28.37;20.73;;;18.00;91.80;;;;;;5062456;28;20238;-65
2023/09/27 03:45:12;;;;;;;30.70;20.13;;;18.00;91.70;;;;;;5056299;28;20732;-65
2023/09/27 03:47:42;;;;;;;29.97;21.80;;;17.90;91.70;;;;;;5051104;28;20212;-65
2023/09/27 03:50:12;;;;;;;26.70;22.03;;;17.90;91.80;;;;;;5043605;28;20266;-65
2023/09/27 03:52:40;;;;;;;31.53;21.63;;;17.90;91.80;;;;;;5050419;28;20209;-65
2023/09/27 03:55:11;;;;;;;29.07;20.53;;;17.90;91.90;;;;;;5050684;28;20209;-65
2023/09/27 03:57:40;;;;;;;26.00;20.50;;;17.90;91.90;;;;;;5044766;28;20219;-65
2023/09/27 04:00:13;;;;;;;29.93;20.90;;;17.90;91.90;;;;;;5054288;28;20236;-65
2023/09/27 04:02:42;;;;;;;27.70;20.27;;;17.90;91.80;;;;;;5059655;28;20236;-65
2023/09/27 04:05:10;;;;;;;30.63;19.97;;;17.90;91.80;;;;;;5062465;28;20792;-64
2023/09/27 04:07:37;;;;;;;26.77;19.40;;;17.90;91.80;;;;;;5064948;28;20615;-65
2023/09/27 04:10:06;;;;;;;32.53;20.30;;;17.90;91.90;;;;;;5041077;28;20209;-64
2023/09/27 04:12:33;;;;;;;31.77;21.10;;;17.90;91.80;;;;;;5042304;28;20211;-65
2023/09/27 04:15:00;;;;;;;26.47;20.47;;;17.90;91.80;;;;;;5055237;28;20209;-64
2023/09/27 04:17:27;;;;;;;24.87;20.23;;;17.90;91.80;;;;;;5060619;28;20228;-65
2023/09/27 04:19:55;;;;;;;27.07;21.27;;;17.80;91.70;;;;;;5054845;28;20616;-64
2023/09/27 04:22:22;;;;;;;24.30;20.03;;;17.80;91.70;;;;;;5050490;28;20203;-64
2023/09/27 04:24:49;;;;;;;33.93;19.63;;;17.80;91.80;;;;;;5049233;28;20196;-65
2023/09/27 04:27:16;;;;;;;29.73;20.57;;;17.80;91.90;;;;;;5047795;28;20189;-65
2023/09/27 04:29:43;;;;;;;28.07;19.83;;;17.80;92.00;;;;;;5043605;28;20307;-64
2023/09/27 04:32:10;;;;;;;29.23;21.17;;;17.70;91.90;;;;;;5055507;28;20269;-65
2023/09/27 04:34:37;;;;;;;26.37;18.90;;;17.70;91.80;;;;;;5054324;28;20203;-64
2023/09/27 04:37:04;;;;;;;31.97;21.03;;;17.70;91.90;;;;;;5058567;28;20318;-65
2023/09/27 04:39:31;;;;;;;27.73;19.70;;;17.60;92.00;;;;;;5043336;28;20202;-65
2023/09/27 04:41:58;;;;;;;26.93;20.07;;;17.60;92.00;;;;;;5052163;28;20210;-64
2023/09/27 04:44:25;;;;;;;24.97;19.33;;;17.60;92.10;;;;;;5052376;28;20197;-64
2023/09/27 04:46:55;;;;;;;26.60;20.80;;;17.60;92.10;;;;;;5051545;28;20206;-65
2023/09/27 04:49:22;;;;;;;24.83;18.63;;;17.60;92.10;;;;;;5050726;28;20608;-64
2023/09/27 04:51:49;;;;;;;23.67;19.27;;;17.60;92.10;;;;;;5060187;28;20199;-65
2023/09/27 04:54:17;;;;;;;25.37;19.97;;;17.60;92.10;;;;;;5058144;28;20199;-64
2023/09/27 04:56:44;;;;;;;28.83;19.37;;;17.60;92.10;;;;;;5055852;28;20228;-64
2023/09/27 04:59:11;;;;;;;25.63;19.70;;;17.60;92.10;;;;;;5051179;28;20635;-64
2023/09/27 05:01:38;;;;;;;27.53;19.53;;;17.60;92.10;;;;;;5057562;28;20195;-64
2023/09/27 05:04:06;;;;;;;30.60;19.77;;;17.60;92.10;;;;;;5066792;28;20202;-65
2023/09/27 05:06:33;;;;;;;29.17;20.87;;;17.50;92.10;;;;;;5062851;28;20203;-65
2023/09/27 05:09:00;;;;;;;31.27;23.10;;;17.50;92.10;;;;;;5068462;28;20196;-64
2023/09/27 05:11:27;;;;;;;25.80;20.60;;;17.50;92.10;;;;;;5061656;28;20225;-65
2023/09/27 05:13:54;;;;;;;34.43;22.23;;;17.60;92.20;;;;;;5054895;28;20199;-65
2023/09/27 05:16:21;;;;;;;27.53;21.10;;;17.60;92.20;;;;;;5062913;28;20187;-64
2023/09/27 05:18:48;;;;;;;31.67;21.97;;;17.60;92.20;;;;;;5059762;28;20636;-64
2023/09/27 05:21:16;;;;;;;26.07;21.23;;;17.60;92.30;;;;;;5054218;28;20579;-64
2023/09/27 05:23:43;;;;;;;34.67;22.63;;;17.60;92.30;;;;;;5052644;28;20326;-65
2023/09/27 05:26:11;;;;;;;28.80;21.63;;;17.60;92.60;;;;;;5061764;28;20294;-64
2023/09/27 05:28:39;;;;;;;30.20;22.37;;;17.60;92.30;;;;;;5053485;28;20207;-64
2023/09/27 05:31:06;;;;;;;27.90;20.33;;;17.70;92.30;;;;;;5056896;28;20224;-65
2023/09/27 05:33:33;;;;;;;33.37;22.00;;;17.70;92.30;;;;;;5051104;28;20215;-65
2023/09/27 05:36:00;;;;;;;32.87;21.87;;;17.70;92.30;;;;;;5057383;28;20502;-64
2023/09/27 05:38:27;;;;;;;27.97;21.17;;;17.80;92.40;;;;;;5055306;28;20273;-65
2023/09/27 05:40:54;;;;;;;29.67;21.93;;;17.80;92.40;;;;;;5061387;28;20278;-64
2023/09/27 05:43:21;;;;;;;29.13;20.30;;;17.80;92.60;;;;;;5057959;28;20202;-64
2023/09/27 05:45:48;;;;;;;30.13;22.00;;;17.90;92.40;;;;;;5054397;28;20207;-64
2023/09/27 05:48:15;;;;;;;31.63;23.83;;;18.10;92.20;;;;;;5058785;28;20266;-64
2023/09/27 05:50:47;;;;;;;28.17;22.07;;;18.20;92.00;;;;;;5057913;28;20298;-64
2023/09/27 05:53:16;;;;;;;28.87;21.13;;;18.40;91.70;;;;;;5055035;28;20215;-64
2023/09/27 05:55:44;;;;;;;33.83;22.03;;;18.60;91.50;;;;;;5055323;28;20216;-64
2023/09/27 05:58:11;;;;;;;27.50;21.57;;;18.80;91.20;;;;;;5058004;28;20228;-64
2023/09/27 06:00:40;;;;;;;33.17;22.70;;;19.00;90.70;;;;;;5060855;28;20247;-64
2023/09/27 06:03:08;;;;;;;27.13;20.33;;;19.10;90.40;;;;;;5054569;28;20614;-64
2023/09/27 06:05:35;;;;;;;34.80;22.20;;;19.10;90.50;;;;;;5051573;28;20272;-64
2023/09/27 06:08:03;;;;;;;31.27;22.17;;;19.00;90.60;;;;;;5057511;28;20231;-64
2023/09/27 06:10:30;;;;;;;30.03;22.03;;;19.00;90.60;;;;;;5052409;28;20965;-64
2023/09/27 06:12:57;;;;;;;31.63;22.47;;;19.00;90.70;;;;;;5057524;28;20561;-64
2023/09/27 06:15:24;;;;;;;29.60;23.10;;;19.00;90.80;;;;;;5054223;28;21290;-64
2023/09/27 06:17:51;;;;;;;31.43;22.63;;;19.00;91.00;;;;;;5062213;28;20304;-64
2023/09/27 06:20:22;;;;;;;27.70;20.93;;;19.20;90.90;;;;;;5057565;28;20641;-64
2023/09/27 06:22:52;;;;;;;28.83;23.07;;;19.40;90.60;;;;;;5050758;28;20272;-64
2023/09/27 06:25:23;;;;;;;29.80;22.23;;;19.40;90.50;;;;;;5054856;28;20222;-64
2023/09/27 06:27:51;;;;;;;30.20;22.60;;;19.40;90.40;;;;;;5057399;28;20546;-64
2023/09/27 06:30:20;;;;;;;32.27;21.73;;;19.40;90.40;;;;;;5055911;28;20206;-64
2023/09/27 06:32:48;;;;;;;35.13;22.63;;;19.40;90.50;;;;;;5058086;28;20220;-65
2023/09/27 06:35:15;;;;;;;32.07;23.40;;;19.40;90.60;;;;;;5059168;28;20277;-64
2023/09/27 06:37:44;;;;;;;28.10;21.17;;;19.40;90.70;;;;;;5056589;28;20216;-64
2023/09/27 06:40:16;;;;;;;27.93;22.33;;;19.40;90.80;;;;;;5051834;28;20206;-64
2023/09/27 06:42:45;;;;;;;32.53;22.50;;;19.40;90.80;;;;;;5060406;28;20204;-64
2023/09/27 06:45:13;;;;;;;34.93;22.47;;;19.50;90.90;;;;;;5056478;28;20195;-64
2023/09/27 06:47:41;;;;;;;27.83;22.20;;;19.60;90.90;;;;;;5058274;28;20221;-62
2023/09/27 06:50:09;;;;;;;27.93;23.10;;;19.60;90.90;;;;;;5059563;28;20220;-62
2023/09/27 06:52:39;;;;;;;31.40;21.73;;;19.70;90.90;;;;;;5063069;28;20539;-62
2023/09/27 06:55:10;;;;;;;33.23;22.07;;;19.70;90.80;;;;;;5050343;28;20223;-65
2023/09/27 06:57:39;;;;;;;30.30;22.73;;;19.80;90.90;;;;;;5053866;28;20210;-62
2023/09/27 07:00:24;;;;;;;32.10;23.40;;;19.90;90.90;;;;;;5054103;28;20237;-62
2023/09/27 07:02:52;;;;;;;30.87;22.60;;;19.90;90.80;;;;;;5050874;28;20206;-63
2023/09/27 07:05:23;;;;;;;31.60;22.57;;;20.00;90.70;;;;;;5060796;28;20233;-62
2023/09/27 07:07:51;;;;;;;29.50;22.87;;;20.10;90.70;;;;;;5054697;28;20629;-63
2023/09/27 07:10:20;;;;;;;31.43;23.17;;;20.20;90.60;;;;;;5058881;28;20214;-65
2023/09/27 07:12:47;;;;;;;30.27;22.80;;;20.20;90.60;;;;;;5055048;28;20195;-63
2023/09/27 07:15:14;;;;;;;26.33;22.00;;;20.30;90.60;;;;;;5049788;28;20202;-63
2023/09/27 07:17:43;;;;;;;30.03;22.33;;;20.40;90.60;;;;;;5053309;28;20751;-64
2023/09/27 07:20:23;;;;;;;30.90;21.93;;;20.50;90.70;;;;;;5053056;28;20301;-64
2023/09/27 07:22:51;;;;;;;27.63;21.67;;;20.60;90.50;;;;;;5059961;28;20189;-64
2023/09/27 07:25:19;;;;;;;29.30;21.93;;;20.80;90.50;;;;;;5057976;28;20207;-65
2023/09/27 07:27:50;;;;;;;35.77;23.03;;;20.90;90.40;;;;;;5044880;28;20228;-64
2023/09/27 07:30:18;;;;;;;30.70;23.13;;;21.00;90.20;;;;;;5058434;28;20709;-65
2023/09/27 07:32:46;;;;;;;32.70;22.87;;;21.10;90.10;;;;;;5062031;28;20215;-63
2023/09/27 07:35:17;;;;;;;32.93;22.33;;;21.30;89.90;;;;;;5056959;28;20194;-62
2023/09/27 07:37:45;;;;;;;33.03;23.27;;;21.40;89.50;;;;;;5061705;28;20217;-62
2023/09/27 07:40:14;;;;;;;31.00;23.00;;;21.60;88.80;;;;;;5058225;28;20272;-64
2023/09/27 07:42:42;;;;;;;29.13;23.70;;;21.70;88.40;;;;;;5055340;28;20225;-64
2023/09/27 07:45:36;;;;;;;33.37;23.33;;;21.90;88.10;;;;;;5058911;28;20307;-63
2023/09/27 07:47:59;;;;;;;34.57;21.87;;;22.00;87.70;;;;;;5056039;28;20260;-63
2023/09/27 07:50:28;;;;;;;27.43;22.30;;;22.20;87.50;;;;;;5060907;28;20216;-65
2023/09/27 07:52:55;;;;;;;27.73;21.83;;;22.40;87.00;;;;;;5053842;28;20217;-63
2023/09/27 07:55:22;;;;;;;31.57;21.70;;;22.60;86.50;;;;;;5055398;28;20210;-62
2023/09/27 07:57:52;;;;;;;24.73;21.60;;;22.80;85.70;;;;;;5054133;28;20280;-64
2023/09/27 08:00:25;;;;;;;27.23;20.60;;;23.00;84.90;;;;;;5056484;28;20685;-63
2023/09/27 08:02:55;;;;;;;26.17;19.83;;;23.20;83.20;;;;;;5056364;28;20199;-66
2023/09/27 08:05:23;;;;;;;21.67;18.80;;;23.30;82.40;;;;;;5060371;28;20206;-65
2023/09/27 08:07:53;;;;;;;24.27;19.33;;;23.30;82.40;;;;;;5054491;28;20554;-65
2023/09/27 08:10:22;;;;;;;25.50;19.20;;;23.40;82.20;;;;;;5056856;28;20194;-64
2023/09/27 08:12:49;;;;;;;24.90;18.63;;;23.50;81.70;;;;;;5052418;28;20325;-63
2023/09/27 08:15:20;;;;;;;24.93;18.13;;;23.70;80.20;;;;;;5053527;28;20265;-64
2023/09/27 08:17:47;;;;;;;24.00;18.73;;;23.70;79.80;;;;;;5058027;28;20696;-63
2023/09/27 08:20:15;;;;;;;24.20;18.67;;;23.70;79.80;;;;;;5056629;28;20285;-64
2023/09/27 08:22:42;;;;;;;20.30;16.57;;;23.80;79.70;;;;;;5053828;28;20202;-64
2023/09/27 08:25:16;;;;;;;20.50;17.13;;;24.00;79.50;;;;;;5052324;28;20197;-63
2023/09/27 08:27:44;;;;;;;19.30;15.87;;;24.10;79.00;;;;;;5052981;28;20205;-65
2023/09/27 08:30:12;;;;;;;23.90;17.57;;;24.40;78.30;;;;;;5056750;28;20700;-62
2023/09/27 08:32:40;;;;;;;20.23;17.60;;;24.60;77.70;;;;;;5057462;28;20201;-66
2023/09/27 08:35:09;;;;;;;20.50;17.87;;;24.80;76.90;;;;;;5055435;28;20202;-63
2023/09/27 08:37:36;;;;;;;19.93;15.93;;;25.00;76.10;;;;;;5060729;28;20565;-63
2023/09/27 08:40:05;;;;;;;25.33;15.43;;;25.20;75.90;;;;;;5051618;28;20666;-62
2023/09/27 08:42:34;;;;;;;18.27;13.90;;;25.40;75.30;;;;;;5055344;28;20202;-64
2023/09/27 08:45:03;;;;;;;15.10;12.40;;;25.50;74.20;;;;;;5055620;28;20243;-63
2023/09/27 08:47:31;;;;;;;19.77;14.97;;;25.70;73.30;;;;;;5060398;28;20207;-61
2023/09/27 08:49:58;;;;;;;20.77;13.20;;;25.80;72.30;;;;;;5061898;28;20198;-62
2023/09/27 08:52:28;;;;;;;16.90;12.90;;;25.90;70.40;;;;;;5054140;28;20245;-62
2023/09/27 08:54:55;;;;;;;19.80;14.37;;;26.00;70.20;;;;;;5054407;28;20217;-65
2023/09/27 08:57:28;;;;;;;23.13;12.73;;;26.10;70.80;;;;;;5059939;28;20209;-63
2023/09/27 08:59:55;;;;;;;18.70;13.67;;;26.20;71.00;;;;;;5047245;28;20280;-65
2023/09/27 09:02:24;;;;;;;20.83;12.80;;;26.30;70.40;;;;;;5061957;28;20230;-63
2023/09/27 09:04:51;;;;;;;16.43;12.20;;;26.50;69.40;;;;;;5058834;28;20203;-62
2023/09/27 09:07:18;;;;;;;21.03;12.37;;;26.50;68.70;;;;;;5058495;28;20200;-64
2023/09/27 09:09:46;;;;;;;21.63;11.50;;;26.60;68.00;;;;;;5051642;28;20257;-66
2023/09/27 09:12:13;;;;;;;17.20;11.80;;;26.70;67.30;;;;;;5051110;28;20202;-65
2023/09/27 09:14:49;;;;;;;21.40;11.13;;;26.80;67.00;;;;;;5054031;28;20198;-64
2023/09/27 09:17:24;;;;;;;20.20;11.13;;;26.90;66.40;;;;;;5057222;28;20197;-61
2023/09/27 09:20:28;;;;;;;14.23;11.10;;;27.00;66.30;;;;;;5062465;28;20273;-62
2023/09/27 09:22:57;;;;;;;15.47;10.10;;;27.00;65.50;;;;;;5061811;28;20256;-65
2023/09/27 09:25:25;;;;;;;13.40;10.90;;;27.20;65.50;;;;;;5054514;28;20224;-65
2023/09/27 09:28:09;;;;;;;16.10;10.73;;;27.30;64.80;;;;;;5051163;28;20229;-62
2023/09/27 09:30:37;;;;;;;15.43;11.40;;;27.30;63.60;;;;;;5050479;28;20220;-63
2023/09/27 09:33:17;;;;;;;13.57;8.50;;;27.40;62.70;;;;;;5056501;28;20233;-64
2023/09/27 09:35:44;;;;;;;14.33;8.83;;;27.40;61.20;;;;;;5055151;28;20193;-65
2023/09/27 09:38:12;;;;;;;14.60;7.97;;;27.40;62.10;;;;;;5057611;28;20720;-66
2023/09/27 09:40:56;;;;;;;9.30;7.57;;;27.40;62.30;;;;;;5053341;28;20256;-64
2023/09/27 09:43:36;;;;;;;16.03;7.33;;;27.50;61.60;;;;;;5049848;28;20213;-65
2023/09/27 09:46:10;;;;;;;19.23;8.33;;;27.50;62.10;;;;;;5054798;28;20202;-65
2023/09/27 09:48:38;;;;;;;11.17;8.80;;;27.60;62.90;;;;;;5053656;28;20213;-65
2023/09/27 09:51:07;;;;;;;12.97;7.73;;;27.70;61.20;;;;;;5058774;28;20213;-65
2023/09/27 09:53:40;;;;;;;11.80;7.70;;;27.80;61.30;;;;;;5053957;28;20391;-64
2023/09/27 09:56:09;;;;;;;10.27;6.80;;;27.90;60.40;;;;;;5060345;28;20281;-64
2023/09/27 09:58:51;;;;;;;16.37;7.27;;;27.90;59.80;;;;;;5058235;28;20279;-64
2023/09/27 10:01:26;;;;;;;19.70;9.10;;;28.00;59.90;;;;;;5048089;28;20198;-65
2023/09/27 10:03:53;;;;;;;10.87;7.27;;;28.00;59.20;;;;;;5050902;28;20191;-64
2023/09/27 10:06:22;;;;;;;12.60;7.27;;;28.10;59.40;;;;;;5057896;28;20284;-63
2023/09/27 10:09:14;;;;;;;11.37;7.00;;;28.20;59.70;;;;;;5059470;28;20692;-62
2023/09/27 10:11:46;;;;;;;11.20;6.93;;;28.30;59.50;;;;;;5063576;28;20199;-65
2023/09/27 10:14:18;;;;;;;10.70;6.43;;;28.40;59.30;;;;;;5057698;28;20264;-66
2023/09/27 10:16:48;;;;;;;15.53;6.80;;;28.40;59.40;;;;;;5058799;28;20199;-66
2023/09/27 10:19:28;;;;;;;11.33;7.27;;;28.60;59.00;;;;;;5054428;28;20217;-66
2023/09/27 10:22:07;;;;;;;16.87;7.17;;;28.60;57.80;;;;;;5056237;28;20705;-66
2023/09/27 10:24:41;;;;;;;13.03;5.70;;;28.70;57.90;;;;;;5062734;28;20225;-66
2023/09/27 10:27:08;;;;;;;11.50;5.40;;;28.70;57.90;;;;;;5056758;28;20191;-66
2023/09/27 10:29:58;;;;;;;7.67;4.50;;;28.80;57.60;;;;;;5061997;28;20201;-66
2023/09/27 10:32:26;;;;;;;11.87;4.63;;;28.80;57.90;;;;;;5072158;28;20505;-66
2023/09/27 10:34:53;;;;;;;8.20;5.10;;;28.90;58.00;;;;;;5056811;28;20594;-66
2023/09/27 10:37:56;;;;;;;7.07;5.07;;;29.00;56.50;;;;;;5054003;28;20289;-66
2023/09/27 10:40:23;;;;;;;11.67;4.80;;;29.10;56.40;;;;;;5054389;28;20289;-66
2023/09/27 10:42:51;;;;;;;10.87;5.03;;;29.10;56.40;;;;;;5054741;28;20217;-66
2023/09/27 10:45:18;;;;;;;7.90;4.70;;;29.20;56.40;;;;;;5053786;28;20541;-66
2023/09/27 10:47:47;;;;;;;8.13;4.40;;;29.10;55.60;;;;;;5060513;28;20202;-66
2023/09/27 10:50:16;;;;;;;8.60;4.53;;;29.20;54.80;;;;;;5057306;28;20209;-66
2023/09/27 10:52:43;;;;;;;11.33;4.83;;;29.20;55.20;;;;;;5059489;28;20647;-66
2023/09/27 10:55:14;;;;;;;16.50;4.77;;;29.30;56.00;;;;;;5055575;28;20203;-66
2023/09/27 10:57:41;;;;;;;9.07;4.47;;;29.30;54.30;;;;;;5050930;28;20232;-66
2023/09/27 11:00:12;;;;;;;6.50;4.37;;;29.30;55.10;;;;;;5049788;28;20670;-67
2023/09/27 11:02:41;;;;;;;5.57;4.40;;;29.30;55.70;;;;;;5038409;28;20190;-67
2023/09/27 11:05:09;;;;;;;12.53;4.80;;;29.30;54.70;;;;;;5061249;28;20202;-67
2023/09/27 11:07:50;;;;;;;10.30;4.80;;;29.30;53.90;;;;;;5057361;28;20194;-66
2023/09/27 11:10:37;;;;;;;8.43;4.47;;;29.30;54.80;;;;;;5056354;28;20519;-67
2023/09/27 11:13:12;;;;;;;8.70;4.90;;;29.40;54.20;;;;;;5054309;28;20221;-66
2023/09/27 11:15:41;;;;;;;7.27;4.83;;;29.40;53.40;;;;;;5051631;28;20210;-66
2023/09/27 11:18:09;;;;;;;8.57;4.50;;;29.40;53.40;;;;;;5054459;28;20203;-66
2023/09/27 11:20:38;;;;;;;11.20;4.67;;;29.50;54.60;;;;;;5058889;28;20206;-66
2023/09/27 11:23:05;;;;;;;8.33;4.50;;;29.50;53.50;;;;;;5056493;28;20218;-66
2023/09/27 11:25:34;;;;;;;10.97;5.13;;;29.60;52.60;;;;;;5052669;28;20195;-66
2023/09/27 11:28:02;;;;;;;10.77;4.60;;;29.60;52.20;;;;;;5051459;28;20664;-66
2023/09/27 11:30:32;;;;;;;8.23;4.87;;;29.70;51.60;;;;;;5051220;28;20254;-67
2023/09/27 11:33:05;;;;;;;9.73;4.53;;;29.70;50.90;;;;;;5057399;28;20230;-66
2023/09/27 11:35:33;;;;;;;6.27;4.50;;;29.70;50.80;;;;;;5054833;28;20201;-66
2023/09/27 11:38:11;;;;;;;6.93;4.30;;;29.70;51.00;;;;;;5059421;28;20284;-66
2023/09/27 11:40:40;;;;;;;6.47;4.20;;;29.70;51.00;;;;;;5052315;28;20767;-66
2023/09/27 11:43:08;;;;;;;14.37;4.93;;;29.80;50.60;;;;;;5054860;28;20290;-66
2023/09/27 11:45:50;;;;;;;10.80;4.03;;;29.90;50.70;;;;;;5050961;28;20251;-66
2023/09/27 11:48:32;;;;;;;10.20;4.27;;;29.90;51.30;;;;;;5050861;28;20209;-67
2023/09/27 11:51:00;;;;;;;8.97;4.50;;;30.00;51.20;;;;;;5054272;28;20240;-66
2023/09/27 11:53:28;;;;;;;10.40;4.40;;;30.00;51.40;;;;;;5060033;28;20605;-67
2023/09/27 11:55:56;;;;;;;17.47;5.20;;;30.10;51.00;;;;;;5058622;28;20263;-66
2023/09/27 11:58:23;;;;;;;8.40;4.53;;;30.10;51.50;;;;;;5051827;28;20199;-66
2023/09/27 12:00:51;;;;;;;14.60;4.77;;;30.10;51.60;;;;;;5051034;28;20597;-67
2023/09/27 12:03:18;;;;;;;7.90;4.73;;;30.20;51.40;;;;;;5052083;28;20594;-66
2023/09/27 12:05:45;;;;;;;10.13;4.77;;;30.30;50.90;;;;;;5054018;28;20613;-67
2023/09/27 12:08:13;;;;;;;8.00;3.83;;;30.30;50.90;;;;;;5056380;28;20285;-66
2023/09/27 12:10:40;;;;;;;11.73;4.27;;;30.40;49.70;;;;;;5057352;28;20210;-67
2023/09/27 12:13:07;;;;;;;5.53;3.70;;;30.40;49.30;;;;;;5060463;28;20197;-67
2023/09/27 12:15:34;;;;;;;14.73;4.73;;;30.40;48.70;;;;;;5048143;28;20190;-66
2023/09/27 12:18:01;;;;;;;11.47;4.13;;;30.40;48.30;;;;;;5047138;28;20210;-66
2023/09/27 12:20:30;;;;;;;6.37;3.93;;;30.40;48.80;;;;;;5048180;28;20211;-67
2023/09/27 12:23:08;;;;;;;10.10;4.03;;;30.40;49.20;;;;;;5049044;28;20281;-66
2023/09/27 12:25:36;;;;;;;7.97;4.10;;;30.30;49.50;;;;;;5053964;28;20744;-66
2023/09/27 12:28:04;;;;;;;11.77;4.20;;;30.20;48.30;;;;;;5055673;28;20213;-67
2023/09/27 12:30:31;;;;;;;9.00;4.47;;;30.10;48.10;;;;;;5055779;28;20206;-66
2023/09/27 12:32:58;;;;;;;8.40;4.47;;;30.10;48.80;;;;;;5043161;28;20268;-66
2023/09/27 12:35:26;;;;;;;7.13;3.83;;;30.00;49.10;;;;;;5042706;28;20203;-66
2023/09/27 12:37:53;;;;;;;6.70;4.23;;;30.00;48.90;;;;;;5052236;28;20293;-66
2023/09/27 12:40:20;;;;;;;11.00;4.13;;;30.00;48.90;;;;;;5049106;28;20638;-66